Portada
METAR-TAF:

METAR-TAF

Aeroports :

Chumphon, Tailàndia

latitud: 10-42-40N, longitud: 099-21-42E, altitud: 5 m

Observació

L'informe es va fer fa 39 minuts, a les 11:00 UTC
Vent 2 kt amb direcció variable
Temperatura 27°C
Humitat 89%
Pressió 1009 hPa
Visibilitat 10 km o més
sense núvols per sota de 1500 mi sense presència de cumulonimbus.

METAR: VTSE 181100Z VRB02KT CAVOK 27/25 Q1009 NOSIG

Hora: 18:39 (11:39 UTC)

Pronòstic

L'informe es va fer fa 6 hores i 39 minuts, a les 05:00 UTC
Pronòstic vàlid del 18 a les 06 UTC al 19 a les 06 UTC
Vent 6 kt del Est/Sud-Est
Visibilitat 10 km o més
Escasses núvols a una alçada de 2000 ft

TAF: VTSE 180500Z 1806/1906 12006KT 9999 FEW020

Observacions i pronòstics meteorològics de més de 4000 aeroports (METAR i TAF).

Les estacions disponibles són els punts grocs i vermells al mapa.

Posi el ratolí al punt desitjat per veure el nom de l'estació.

Feu clic per veure les observacions i els pronòstics meteorològics.

Per canviar el mapa: feu clic els botons verds amb una creu de color negre per apropar; al botó verd amb un guió per allunyar la imatge; o en les fletxes verdes per a mapes adjacents.


METAR-TAF: